sensor_id;sensor_type;location;lat;lon;timestamp;P1;durP1;ratioP1;P2;durP2;ratioP2
58659;SDS011;44429;45.110;20.622;2022-08-21T00:00:48;16.42;;;8.25;;
58659;SDS011;44429;45.110;20.622;2022-08-21T00:03:14;19.85;;;8.23;;
58659;SDS011;44429;45.110;20.622;2022-08-21T00:05:46;17.45;;;8.70;;
58659;SDS011;44429;45.110;20.622;2022-08-21T00:08:12;17.63;;;8.55;;
58659;SDS011;44429;45.110;20.622;2022-08-21T00:10:39;20.77;;;8.95;;
58659;SDS011;44429;45.110;20.622;2022-08-21T00:13:05;18.05;;;8.32;;
58659;SDS011;44429;45.110;20.622;2022-08-21T00:15:33;18.55;;;8.65;;
58659;SDS011;44429;45.110;20.622;2022-08-21T00:18:00;16.17;;;8.52;;
58659;SDS011;44429;45.110;20.622;2022-08-21T00:20:26;16.83;;;8.73;;
58659;SDS011;44429;45.110;20.622;2022-08-21T00:22:52;18.65;;;8.75;;
58659;SDS011;44429;45.110;20.622;2022-08-21T00:25:18;19.15;;;9.77;;
58659;SDS011;44429;45.110;20.622;2022-08-21T00:27:45;14.93;;;8.50;;
58659;SDS011;44429;45.110;20.622;2022-08-21T00:30:15;16.70;;;8.57;;
58659;SDS011;44429;45.110;20.622;2022-08-21T00:32:41;22.33;;;10.82;;
58659;SDS011;44429;45.110;20.622;2022-08-21T00:35:08;20.70;;;8.65;;
58659;SDS011;44429;45.110;20.622;2022-08-21T00:37:36;18.30;;;8.98;;
58659;SDS011;44429;45.110;20.622;2022-08-21T00:40:02;16.55;;;9.25;;
58659;SDS011;44429;45.110;20.622;2022-08-21T00:42:29;17.50;;;10.50;;
58659;SDS011;44429;45.110;20.622;2022-08-21T00:44:55;18.25;;;10.48;;
58659;SDS011;44429;45.110;20.622;2022-08-21T00:47:21;23.70;;;11.70;;
58659;SDS011;44429;45.110;20.622;2022-08-21T00:49:47;18.48;;;10.85;;
58659;SDS011;44429;45.110;20.622;2022-08-21T00:52:16;18.92;;;11.18;;
58659;SDS011;44429;45.110;20.622;2022-08-21T00:54:43;20.58;;;11.73;;
58659;SDS011;44429;45.110;20.622;2022-08-21T00:57:10;21.02;;;11.90;;
58659;SDS011;44429;45.110;20.622;2022-08-21T00:59:39;19.63;;;10.73;;
58659;SDS011;44429;45.110;20.622;2022-08-21T01:02:06;20.95;;;11.25;;
58659;SDS011;44429;45.110;20.622;2022-08-21T01:04:34;21.42;;;11.38;;
58659;SDS011;44429;45.110;20.622;2022-08-21T01:07:00;18.05;;;11.07;;
58659;SDS011;44429;45.110;20.622;2022-08-21T01:09:26;19.02;;;10.85;;
58659;SDS011;44429;45.110;20.622;2022-08-21T01:11:53;20.83;;;10.63;;
58659;SDS011;44429;45.110;20.622;2022-08-21T01:14:19;18.83;;;11.13;;
58659;SDS011;44429;45.110;20.622;2022-08-21T01:16:48;20.52;;;11.32;;
58659;SDS011;44429;45.110;20.622;2022-08-21T01:19:15;19.42;;;12.02;;
58659;SDS011;44429;45.110;20.622;2022-08-21T01:21:42;18.88;;;10.90;;
58659;SDS011;44429;45.110;20.622;2022-08-21T01:24:08;18.30;;;10.18;;
58659;SDS011;44429;45.110;20.622;2022-08-21T01:26:35;21.33;;;12.15;;
58659;SDS011;44429;45.110;20.622;2022-08-21T01:29:05;17.85;;;12.32;;
58659;SDS011;44429;45.110;20.622;2022-08-21T01:31:32;17.40;;;11.43;;
58659;SDS011;44429;45.110;20.622;2022-08-21T01:33:59;19.85;;;12.65;;
58659;SDS011;44429;45.110;20.622;2022-08-21T01:36:25;20.73;;;12.77;;
58659;SDS011;44429;45.110;20.622;2022-08-21T01:38:51;21.55;;;13.70;;
58659;SDS011;44429;45.110;20.622;2022-08-21T01:41:17;22.25;;;12.55;;
58659;SDS011;44429;45.110;20.622;2022-08-21T01:43:44;24.05;;;13.88;;
58659;SDS011;44429;45.110;20.622;2022-08-21T01:46:10;20.98;;;14.30;;
58659;SDS011;44429;45.110;20.622;2022-08-21T01:48:37;22.48;;;13.48;;
58659;SDS011;44429;45.110;20.622;2022-08-21T01:51:04;23.38;;;13.50;;
58659;SDS011;44429;45.110;20.622;2022-08-21T01:53:30;20.55;;;13.80;;
58659;SDS011;44429;45.110;20.622;2022-08-21T01:55:59;19.52;;;14.02;;
58659;SDS011;44429;45.110;20.622;2022-08-21T01:58:25;18.35;;;13.10;;
58659;SDS011;44429;45.110;20.622;2022-08-21T02:00:51;22.80;;;14.27;;
58659;SDS011;44429;45.110;20.622;2022-08-21T02:03:17;22.88;;;13.20;;
58659;SDS011;44429;45.110;20.622;2022-08-21T02:05:43;22.73;;;12.55;;
58659;SDS011;44429;45.110;20.622;2022-08-21T02:08:10;23.70;;;13.77;;
58659;SDS011;44429;45.110;20.622;2022-08-21T02:10:36;24.92;;;14.93;;
58659;SDS011;44429;45.110;20.622;2022-08-21T02:13:02;23.77;;;14.27;;
58659;SDS011;44429;45.110;20.622;2022-08-21T02:15:28;22.92;;;13.82;;
58659;SDS011;44429;45.110;20.622;2022-08-21T02:17:56;20.33;;;14.80;;
58659;SDS011;44429;45.110;20.622;2022-08-21T02:20:23;23.05;;;14.48;;
58659;SDS011;44429;45.110;20.622;2022-08-21T02:22:50;24.23;;;14.32;;
58659;SDS011;44429;45.110;20.622;2022-08-21T02:25:16;24.40;;;13.75;;
58659;SDS011;44429;45.110;20.622;2022-08-21T02:27:44;21.83;;;13.70;;
58659;SDS011;44429;45.110;20.622;2022-08-21T02:30:16;22.65;;;13.65;;
58659;SDS011;44429;45.110;20.622;2022-08-21T02:32:42;22.35;;;13.68;;
58659;SDS011;44429;45.110;20.622;2022-08-21T02:35:09;23.17;;;13.98;;
58659;SDS011;44429;45.110;20.622;2022-08-21T02:37:43;21.42;;;14.50;;
58659;SDS011;44429;45.110;20.622;2022-08-21T02:40:10;21.58;;;13.48;;
58659;SDS011;44429;45.110;20.622;2022-08-21T02:42:36;23.13;;;12.32;;
58659;SDS011;44429;45.110;20.622;2022-08-21T02:45:04;19.27;;;13.52;;
58659;SDS011;44429;45.110;20.622;2022-08-21T02:47:30;22.27;;;13.95;;
58659;SDS011;44429;45.110;20.622;2022-08-21T02:49:56;24.13;;;13.35;;
58659;SDS011;44429;45.110;20.622;2022-08-21T02:52:22;24.85;;;14.55;;
58659;SDS011;44429;45.110;20.622;2022-08-21T02:54:49;22.48;;;12.60;;
58659;SDS011;44429;45.110;20.622;2022-08-21T02:57:15;23.83;;;12.93;;
58659;SDS011;44429;45.110;20.622;2022-08-21T02:59:41;21.85;;;12.60;;
58659;SDS011;44429;45.110;20.622;2022-08-21T03:02:08;23.70;;;12.68;;
58659;SDS011;44429;45.110;20.622;2022-08-21T03:04:34;19.90;;;11.85;;
58659;SDS011;44429;45.110;20.622;2022-08-21T03:07:00;20.52;;;12.00;;
58659;SDS011;44429;45.110;20.622;2022-08-21T03:09:26;19.05;;;11.95;;
58659;SDS011;44429;45.110;20.622;2022-08-21T03:11:52;24.23;;;13.10;;
58659;SDS011;44429;45.110;20.622;2022-08-21T03:14:19;20.50;;;13.23;;
58659;SDS011;44429;45.110;20.622;2022-08-21T03:16:45;21.67;;;13.30;;
58659;SDS011;44429;45.110;20.622;2022-08-21T03:19:11;23.88;;;14.07;;
58659;SDS011;44429;45.110;20.622;2022-08-21T03:21:38;20.48;;;14.18;;
58659;SDS011;44429;45.110;20.622;2022-08-21T03:24:04;23.98;;;14.55;;
58659;SDS011;44429;45.110;20.622;2022-08-21T03:26:31;27.08;;;15.15;;
58659;SDS011;44429;45.110;20.622;2022-08-21T03:28:58;20.65;;;14.45;;
58659;SDS011;44429;45.110;20.622;2022-08-21T03:31:24;24.95;;;15.75;;
58659;SDS011;44429;45.110;20.622;2022-08-21T03:33:55;22.58;;;14.50;;
58659;SDS011;44429;45.110;20.622;2022-08-21T03:36:21;21.95;;;14.38;;
58659;SDS011;44429;45.110;20.622;2022-08-21T03:38:48;21.75;;;14.57;;
58659;SDS011;44429;45.110;20.622;2022-08-21T03:41:14;15.98;;;10.13;;
58659;SDS011;44429;45.110;20.622;2022-08-21T03:43:40;18.35;;;9.15;;
58659;SDS011;44429;45.110;20.622;2022-08-21T03:46:06;16.73;;;8.07;;
58659;SDS011;44429;45.110;20.622;2022-08-21T03:48:33;13.13;;;7.75;;
58659;SDS011;44429;45.110;20.622;2022-08-21T03:50:59;14.48;;;8.23;;
58659;SDS011;44429;45.110;20.622;2022-08-21T03:53:26;16.05;;;9.60;;
58659;SDS011;44429;45.110;20.622;2022-08-21T03:55:52;16.05;;;9.68;;
58659;SDS011;44429;45.110;20.622;2022-08-21T03:58:20;13.35;;;8.95;;
58659;SDS011;44429;45.110;20.622;2022-08-21T04:00:47;16.48;;;10.27;;
58659;SDS011;44429;45.110;20.622;2022-08-21T04:03:15;16.75;;;10.75;;
58659;SDS011;44429;45.110;20.622;2022-08-21T04:05:41;22.27;;;12.90;;
58659;SDS011;44429;45.110;20.622;2022-08-21T04:08:07;22.02;;;14.82;;
58659;SDS011;44429;45.110;20.622;2022-08-21T04:10:35;23.65;;;15.07;;
58659;SDS011;44429;45.110;20.622;2022-08-21T04:13:01;25.30;;;15.65;;
58659;SDS011;44429;45.110;20.622;2022-08-21T04:15:27;24.42;;;15.18;;
58659;SDS011;44429;45.110;20.622;2022-08-21T04:17:54;27.48;;;15.68;;
58659;SDS011;44429;45.110;20.622;2022-08-21T04:20:20;23.00;;;14.82;;
58659;SDS011;44429;45.110;20.622;2022-08-21T04:22:47;23.35;;;13.63;;
58659;SDS011;44429;45.110;20.622;2022-08-21T04:25:14;21.50;;;13.88;;
58659;SDS011;44429;45.110;20.622;2022-08-21T04:27:40;24.05;;;14.43;;
58659;SDS011;44429;45.110;20.622;2022-08-21T04:30:07;24.33;;;14.07;;
58659;SDS011;44429;45.110;20.622;2022-08-21T04:32:34;23.80;;;14.27;;
58659;SDS011;44429;45.110;20.622;2022-08-21T04:35:02;28.58;;;14.05;;
58659;SDS011;44429;45.110;20.622;2022-08-21T04:37:29;25.25;;;15.93;;
58659;SDS011;44429;45.110;20.622;2022-08-21T04:39:55;25.58;;;13.80;;
58659;SDS011;44429;45.110;20.622;2022-08-21T04:42:23;25.30;;;13.38;;
58659;SDS011;44429;45.110;20.622;2022-08-21T04:44:50;22.67;;;13.40;;
58659;SDS011;44429;45.110;20.622;2022-08-21T04:47:16;26.52;;;14.55;;
58659;SDS011;44429;45.110;20.622;2022-08-21T04:49:43;25.92;;;13.25;;
58659;SDS011;44429;45.110;20.622;2022-08-21T04:52:09;23.98;;;14.93;;
58659;SDS011;44429;45.110;20.622;2022-08-21T04:54:35;23.38;;;15.23;;
58659;SDS011;44429;45.110;20.622;2022-08-21T04:57:02;25.55;;;15.18;;
58659;SDS011;44429;45.110;20.622;2022-08-21T04:59:36;26.23;;;14.68;;
58659;SDS011;44429;45.110;20.622;2022-08-21T05:02:03;27.65;;;15.50;;
58659;SDS011;44429;45.110;20.622;2022-08-21T05:04:31;24.75;;;14.77;;
58659;SDS011;44429;45.110;20.622;2022-08-21T05:06:59;24.17;;;15.60;;
58659;SDS011;44429;45.110;20.622;2022-08-21T05:09:27;26.40;;;15.93;;
58659;SDS011;44429;45.110;20.622;2022-08-21T05:11:53;26.95;;;16.98;;
58659;SDS011;44429;45.110;20.622;2022-08-21T05:14:20;36.30;;;17.92;;
58659;SDS011;44429;45.110;20.622;2022-08-21T05:16:46;27.77;;;17.58;;
58659;SDS011;44429;45.110;20.622;2022-08-21T05:19:12;27.63;;;16.80;;
58659;SDS011;44429;45.110;20.622;2022-08-21T05:21:43;33.33;;;18.13;;
58659;SDS011;44429;45.110;20.622;2022-08-21T05:24:09;30.52;;;18.75;;
58659;SDS011;44429;45.110;20.622;2022-08-21T05:26:36;31.40;;;17.73;;
58659;SDS011;44429;45.110;20.622;2022-08-21T05:29:03;37.40;;;20.05;;
58659;SDS011;44429;45.110;20.622;2022-08-21T05:31:29;33.75;;;17.15;;
58659;SDS011;44429;45.110;20.622;2022-08-21T05:33:55;30.77;;;17.92;;
58659;SDS011;44429;45.110;20.622;2022-08-21T05:36:21;28.27;;;18.08;;
58659;SDS011;44429;45.110;20.622;2022-08-21T05:38:47;29.50;;;18.67;;
58659;SDS011;44429;45.110;20.622;2022-08-21T05:41:13;26.67;;;17.08;;
58659;SDS011;44429;45.110;20.622;2022-08-21T05:43:39;25.00;;;17.67;;
58659;SDS011;44429;45.110;20.622;2022-08-21T05:46:06;27.00;;;18.17;;
58659;SDS011;44429;45.110;20.622;2022-08-21T05:48:33;25.17;;;15.27;;
58659;SDS011;44429;45.110;20.622;2022-08-21T05:51:04;22.67;;;13.57;;
58659;SDS011;44429;45.110;20.622;2022-08-21T05:53:30;20.92;;;12.23;;
58659;SDS011;44429;45.110;20.622;2022-08-21T05:55:56;26.98;;;13.30;;
58659;SDS011;44429;45.110;20.622;2022-08-21T05:58:22;17.58;;;12.60;;
58659;SDS011;44429;45.110;20.622;2022-08-21T06:00:49;23.38;;;12.77;;
58659;SDS011;44429;45.110;20.622;2022-08-21T06:03:20;21.33;;;13.82;;
58659;SDS011;44429;45.110;20.622;2022-08-21T06:05:46;28.35;;;16.73;;
58659;SDS011;44429;45.110;20.622;2022-08-21T06:08:16;19.08;;;13.98;;
58659;SDS011;44429;45.110;20.622;2022-08-21T06:10:43;18.83;;;12.35;;
58659;SDS011;44429;45.110;20.622;2022-08-21T06:13:09;19.77;;;11.57;;
58659;SDS011;44429;45.110;20.622;2022-08-21T06:15:36;23.70;;;13.13;;
58659;SDS011;44429;45.110;20.622;2022-08-21T06:18:03;23.83;;;16.33;;
58659;SDS011;44429;45.110;20.622;2022-08-21T06:20:29;16.60;;;9.23;;
58659;SDS011;44429;45.110;20.622;2022-08-21T06:22:56;18.83;;;8.85;;
58659;SDS011;44429;45.110;20.622;2022-08-21T06:25:22;20.77;;;8.93;;
58659;SDS011;44429;45.110;20.622;2022-08-21T06:27:49;13.95;;;7.47;;
58659;SDS011;44429;45.110;20.622;2022-08-21T06:30:15;16.58;;;8.13;;
58659;SDS011;44429;45.110;20.622;2022-08-21T06:32:41;20.35;;;11.18;;
58659;SDS011;44429;45.110;20.622;2022-08-21T06:35:08;14.52;;;7.68;;
58659;SDS011;44429;45.110;20.622;2022-08-21T06:37:34;15.48;;;8.13;;
58659;SDS011;44429;45.110;20.622;2022-08-21T06:40:00;15.77;;;8.23;;
58659;SDS011;44429;45.110;20.622;2022-08-21T06:42:26;12.35;;;7.55;;
58659;SDS011;44429;45.110;20.622;2022-08-21T06:44:53;15.27;;;6.78;;
58659;SDS011;44429;45.110;20.622;2022-08-21T06:47:20;12.77;;;7.03;;
58659;SDS011;44429;45.110;20.622;2022-08-21T06:49:46;13.88;;;6.80;;
58659;SDS011;44429;45.110;20.622;2022-08-21T06:52:13;15.15;;;7.32;;
58659;SDS011;44429;45.110;20.622;2022-08-21T06:54:40;15.35;;;6.38;;
58659;SDS011;44429;45.110;20.622;2022-08-21T06:57:07;15.32;;;6.97;;
58659;SDS011;44429;45.110;20.622;2022-08-21T06:59:33;13.93;;;6.55;;
58659;SDS011;44429;45.110;20.622;2022-08-21T07:01:59;15.60;;;7.72;;
58659;SDS011;44429;45.110;20.622;2022-08-21T07:04:26;14.70;;;6.47;;
58659;SDS011;44429;45.110;20.622;2022-08-21T07:06:52;11.45;;;5.63;;
58659;SDS011;44429;45.110;20.622;2022-08-21T07:09:18;12.73;;;6.53;;
58659;SDS011;44429;45.110;20.622;2022-08-21T07:11:45;12.52;;;6.28;;
58659;SDS011;44429;45.110;20.622;2022-08-21T07:14:12;15.80;;;7.15;;
58659;SDS011;44429;45.110;20.622;2022-08-21T07:16:39;16.67;;;6.75;;
58659;SDS011;44429;45.110;20.622;2022-08-21T07:19:05;12.82;;;6.43;;
58659;SDS011;44429;45.110;20.622;2022-08-21T07:21:31;13.15;;;6.88;;
58659;SDS011;44429;45.110;20.622;2022-08-21T07:23:57;12.43;;;6.50;;
58659;SDS011;44429;45.110;20.622;2022-08-21T07:26:23;11.52;;;5.70;;
58659;SDS011;44429;45.110;20.622;2022-08-21T07:28:51;12.38;;;5.97;;
58659;SDS011;44429;45.110;20.622;2022-08-21T07:31:18;11.90;;;6.25;;
58659;SDS011;44429;45.110;20.622;2022-08-21T07:33:44;13.27;;;6.82;;
58659;SDS011;44429;45.110;20.622;2022-08-21T07:36:11;15.25;;;7.90;;
58659;SDS011;44429;45.110;20.622;2022-08-21T07:38:37;14.85;;;6.90;;
58659;SDS011;44429;45.110;20.622;2022-08-21T07:41:07;12.05;;;6.25;;
58659;SDS011;44429;45.110;20.622;2022-08-21T07:43:36;14.30;;;6.60;;
58659;SDS011;44429;45.110;20.622;2022-08-21T07:46:02;10.63;;;5.68;;
58659;SDS011;44429;45.110;20.622;2022-08-21T07:48:28;13.77;;;6.78;;
58659;SDS011;44429;45.110;20.622;2022-08-21T07:50:54;13.18;;;7.00;;
58659;SDS011;44429;45.110;20.622;2022-08-21T07:53:21;14.40;;;7.07;;
58659;SDS011;44429;45.110;20.622;2022-08-21T07:55:47;13.32;;;7.57;;
58659;SDS011;44429;45.110;20.622;2022-08-21T07:58:13;15.05;;;7.30;;
58659;SDS011;44429;45.110;20.622;2022-08-21T08:00:40;16.23;;;7.18;;
58659;SDS011;44429;45.110;20.622;2022-08-21T08:03:06;16.23;;;7.82;;
58659;SDS011;44429;45.110;20.622;2022-08-21T08:05:32;12.18;;;7.22;;
58659;SDS011;44429;45.110;20.622;2022-08-21T08:08:02;14.18;;;8.15;;
58659;SDS011;44429;45.110;20.622;2022-08-21T08:10:28;15.50;;;7.65;;
58659;SDS011;44429;45.110;20.622;2022-08-21T08:12:54;15.95;;;7.35;;
58659;SDS011;44429;45.110;20.622;2022-08-21T08:15:24;14.32;;;7.82;;
58659;SDS011;44429;45.110;20.622;2022-08-21T08:17:51;16.05;;;8.73;;
58659;SDS011;44429;45.110;20.622;2022-08-21T08:20:17;19.67;;;9.95;;
58659;SDS011;44429;45.110;20.622;2022-08-21T08:22:45;23.02;;;15.05;;
58659;SDS011;44429;45.110;20.622;2022-08-21T08:25:12;18.38;;;10.73;;
58659;SDS011;44429;45.110;20.622;2022-08-21T08:27:39;16.33;;;10.35;;
58659;SDS011;44429;45.110;20.622;2022-08-21T08:30:06;17.23;;;8.93;;
58659;SDS011;44429;45.110;20.622;2022-08-21T08:32:32;18.40;;;9.43;;
58659;SDS011;44429;45.110;20.622;2022-08-21T08:34:59;16.20;;;8.32;;
58659;SDS011;44429;45.110;20.622;2022-08-21T13:40:00;9.63;;;4.30;;
58659;SDS011;44429;45.110;20.622;2022-08-21T13:42:26;12.70;;;4.78;;
58659;SDS011;44429;45.110;20.622;2022-08-21T13:44:52;12.18;;;4.43;;
58659;SDS011;44429;45.110;20.622;2022-08-21T13:47:19;10.32;;;4.38;;
58659;SDS011;44429;45.110;20.622;2022-08-21T13:49:46;11.52;;;5.30;;
58659;SDS011;44429;45.110;20.622;2022-08-21T13:52:17;12.57;;;6.80;;
58659;SDS011;44429;45.110;20.622;2022-08-21T13:54:51;13.98;;;8.93;;
58659;SDS011;44429;45.110;20.622;2022-08-21T13:57:18;14.02;;;7.65;;
58659;SDS011;44429;45.110;20.622;2022-08-21T13:59:44;11.95;;;7.75;;
58659;SDS011;44429;45.110;20.622;2022-08-21T14:02:15;9.60;;;4.30;;
58659;SDS011;44429;45.110;20.622;2022-08-21T14:04:43;10.25;;;4.05;;
58659;SDS011;44429;45.110;20.622;2022-08-21T14:07:14;9.80;;;3.88;;
58659;SDS011;44429;45.110;20.622;2022-08-21T14:09:43;9.00;;;3.47;;
58659;SDS011;44429;45.110;20.622;2022-08-21T14:12:29;10.65;;;4.20;;
58659;SDS011;44429;45.110;20.622;2022-08-21T14:14:58;10.88;;;3.75;;
58659;SDS011;44429;45.110;20.622;2022-08-21T14:17:28;8.50;;;3.83;;
58659;SDS011;44429;45.110;20.622;2022-08-21T14:19:55;10.43;;;3.97;;
58659;SDS011;44429;45.110;20.622;2022-08-21T14:22:22;8.00;;;3.92;;
58659;SDS011;44429;45.110;20.622;2022-08-21T14:24:48;11.20;;;5.30;;
58659;SDS011;44429;45.110;20.622;2022-08-21T14:27:16;12.00;;;6.25;;
58659;SDS011;44429;45.110;20.622;2022-08-21T14:29:44;11.20;;;5.93;;
58659;SDS011;44429;45.110;20.622;2022-08-21T14:34:36;9.50;;;5.65;;
58659;SDS011;44429;45.110;20.622;2022-08-21T14:37:03;10.95;;;6.25;;
58659;SDS011;44429;45.110;20.622;2022-08-21T14:39:29;10.18;;;4.95;;
58659;SDS011;44429;45.110;20.622;2022-08-21T14:41:55;12.02;;;5.10;;
58659;SDS011;44429;45.110;20.622;2022-08-21T14:44:22;7.32;;;3.28;;
58659;SDS011;44429;45.110;20.622;2022-08-21T14:46:48;8.27;;;3.25;;
58659;SDS011;44429;45.110;20.622;2022-08-21T14:49:14;8.05;;;3.13;;
58659;SDS011;44429;45.110;20.622;2022-08-21T14:51:40;7.88;;;3.40;;
58659;SDS011;44429;45.110;20.622;2022-08-21T14:54:06;7.55;;;3.58;;
58659;SDS011;44429;45.110;20.622;2022-08-21T14:56:33;7.68;;;4.15;;
58659;SDS011;44429;45.110;20.622;2022-08-21T14:59:02;9.38;;;3.70;;
58659;SDS011;44429;45.110;20.622;2022-08-21T15:01:29;8.82;;;4.20;;
58659;SDS011;44429;45.110;20.622;2022-08-21T15:03:57;10.52;;;4.85;;
58659;SDS011;44429;45.110;20.622;2022-08-21T15:06:23;10.77;;;5.72;;
58659;SDS011;44429;45.110;20.622;2022-08-21T15:08:49;10.57;;;5.70;;
58659;SDS011;44429;45.110;20.622;2022-08-21T15:11:17;11.50;;;5.95;;
58659;SDS011;44429;45.110;20.622;2022-08-21T15:13:44;11.70;;;5.43;;
58659;SDS011;44429;45.110;20.622;2022-08-21T15:16:10;12.65;;;6.88;;
58659;SDS011;44429;45.110;20.622;2022-08-21T15:18:37;13.38;;;8.70;;
58659;SDS011;44429;45.110;20.622;2022-08-21T15:21:03;14.85;;;9.80;;
58659;SDS011;44429;45.110;20.622;2022-08-21T15:23:29;14.90;;;8.77;;
58659;SDS011;44429;45.110;20.622;2022-08-21T15:25:55;13.13;;;9.25;;
58659;SDS011;44429;45.110;20.622;2022-08-21T15:28:23;19.77;;;10.27;;
58659;SDS011;44429;45.110;20.622;2022-08-21T15:30:49;14.70;;;8.90;;
58659;SDS011;44429;45.110;20.622;2022-08-21T15:33:16;15.93;;;10.25;;
58659;SDS011;44429;45.110;20.622;2022-08-21T15:35:42;17.80;;;10.27;;
58659;SDS011;44429;45.110;20.622;2022-08-21T15:38:08;15.20;;;9.05;;
58659;SDS011;44429;45.110;20.622;2022-08-21T15:40:35;14.18;;;9.48;;
58659;SDS011;44429;45.110;20.622;2022-08-21T15:43:02;18.67;;;14.27;;
58659;SDS011;44429;45.110;20.622;2022-08-21T15:45:29;15.75;;;10.52;;
58659;SDS011;44429;45.110;20.622;2022-08-21T15:47:55;15.18;;;9.20;;
58659;SDS011;44429;45.110;20.622;2022-08-21T15:50:23;15.57;;;9.73;;
58659;SDS011;44429;45.110;20.622;2022-08-21T15:52:49;15.77;;;9.88;;
58659;SDS011;44429;45.110;20.622;2022-08-21T15:55:15;12.13;;;7.32;;
58659;SDS011;44429;45.110;20.622;2022-08-21T15:57:43;17.00;;;6.50;;
58659;SDS011;44429;45.110;20.622;2022-08-21T16:00:14;11.15;;;4.55;;
58659;SDS011;44429;45.110;20.622;2022-08-21T16:02:42;8.68;;;4.32;;
58659;SDS011;44429;45.110;20.622;2022-08-21T16:05:09;9.20;;;4.55;;
58659;SDS011;44429;45.110;20.622;2022-08-21T16:07:37;8.45;;;4.20;;
58659;SDS011;44429;45.110;20.622;2022-08-21T16:10:03;9.00;;;4.25;;
58659;SDS011;44429;45.110;20.622;2022-08-21T16:12:30;9.32;;;4.82;;
58659;SDS011;44429;45.110;20.622;2022-08-21T16:14:57;10.85;;;5.22;;
58659;SDS011;44429;45.110;20.622;2022-08-21T16:17:25;12.57;;;5.82;;
58659;SDS011;44429;45.110;20.622;2022-08-21T16:19:53;11.40;;;5.28;;
58659;SDS011;44429;45.110;20.622;2022-08-21T16:22:19;10.98;;;5.47;;
58659;SDS011;44429;45.110;20.622;2022-08-21T16:24:45;9.73;;;5.95;;
58659;SDS011;44429;45.110;20.622;2022-08-21T16:27:12;11.93;;;5.22;;
58659;SDS011;44429;45.110;20.622;2022-08-21T16:29:38;10.75;;;4.88;;
58659;SDS011;44429;45.110;20.622;2022-08-21T16:32:05;7.88;;;4.22;;
58659;SDS011;44429;45.110;20.622;2022-08-21T16:34:31;9.00;;;4.32;;
58659;SDS011;44429;45.110;20.622;2022-08-21T16:36:58;10.68;;;4.55;;
58659;SDS011;44429;45.110;20.622;2022-08-21T16:39:24;13.23;;;4.80;;
58659;SDS011;44429;45.110;20.622;2022-08-21T16:41:50;9.02;;;4.90;;
58659;SDS011;44429;45.110;20.622;2022-08-21T16:44:17;10.45;;;4.18;;
58659;SDS011;44429;45.110;20.622;2022-08-21T16:46:44;9.18;;;4.55;;
58659;SDS011;44429;45.110;20.622;2022-08-21T16:49:10;8.73;;;5.00;;
58659;SDS011;44429;45.110;20.622;2022-08-21T16:51:36;10.45;;;5.45;;
58659;SDS011;44429;45.110;20.622;2022-08-21T16:54:03;9.05;;;4.82;;
58659;SDS011;44429;45.110;20.622;2022-08-21T16:56:29;10.32;;;5.18;;
58659;SDS011;44429;45.110;20.622;2022-08-21T16:58:56;9.68;;;4.55;;
58659;SDS011;44429;45.110;20.622;2022-08-21T17:01:23;8.98;;;4.85;;
58659;SDS011;44429;45.110;20.622;2022-08-21T17:03:50;11.73;;;5.05;;
58659;SDS011;44429;45.110;20.622;2022-08-21T17:06:17;8.55;;;5.18;;
58659;SDS011;44429;45.110;20.622;2022-08-21T17:08:44;9.30;;;5.03;;
58659;SDS011;44429;45.110;20.622;2022-08-21T17:11:12;10.30;;;5.45;;
58659;SDS011;44429;45.110;20.622;2022-08-21T17:13:40;11.50;;;5.13;;
58659;SDS011;44429;45.110;20.622;2022-08-21T17:16:06;14.18;;;6.13;;
58659;SDS011;44429;45.110;20.622;2022-08-21T17:18:32;9.90;;;5.75;;
58659;SDS011;44429;45.110;20.622;2022-08-21T17:20:58;14.68;;;6.82;;
58659;SDS011;44429;45.110;20.622;2022-08-21T17:23:24;10.88;;;6.60;;
58659;SDS011;44429;45.110;20.622;2022-08-21T17:25:51;12.40;;;7.43;;
58659;SDS011;44429;45.110;20.622;2022-08-21T17:28:22;12.73;;;7.03;;
58659;SDS011;44429;45.110;20.622;2022-08-21T17:30:49;14.73;;;8.38;;
58659;SDS011;44429;45.110;20.622;2022-08-21T17:33:16;12.93;;;8.45;;
58659;SDS011;44429;45.110;20.622;2022-08-21T17:35:43;12.70;;;8.25;;
58659;SDS011;44429;45.110;20.622;2022-08-21T17:38:10;14.40;;;8.75;;
58659;SDS011;44429;45.110;20.622;2022-08-21T17:40:37;15.52;;;7.68;;
58659;SDS011;44429;45.110;20.622;2022-08-21T17:43:04;12.73;;;7.80;;
58659;SDS011;44429;45.110;20.622;2022-08-21T17:45:31;12.55;;;8.38;;
58659;SDS011;44429;45.110;20.622;2022-08-21T17:47:57;14.05;;;9.23;;
58659;SDS011;44429;45.110;20.622;2022-08-21T17:50:23;14.57;;;9.45;;
58659;SDS011;44429;45.110;20.622;2022-08-21T17:52:50;15.18;;;8.93;;
58659;SDS011;44429;45.110;20.622;2022-08-21T17:55:16;13.60;;;9.32;;
58659;SDS011;44429;45.110;20.622;2022-08-21T17:57:44;15.18;;;9.13;;
58659;SDS011;44429;45.110;20.622;2022-08-21T18:00:12;12.75;;;8.75;;
58659;SDS011;44429;45.110;20.622;2022-08-21T18:02:39;14.02;;;10.25;;
58659;SDS011;44429;45.110;20.622;2022-08-21T18:05:07;15.30;;;10.05;;
58659;SDS011;44429;45.110;20.622;2022-08-21T18:07:33;14.23;;;9.85;;
58659;SDS011;44429;45.110;20.622;2022-08-21T18:10:00;14.90;;;9.40;;
58659;SDS011;44429;45.110;20.622;2022-08-21T18:12:27;14.73;;;10.68;;
58659;SDS011;44429;45.110;20.622;2022-08-21T18:14:53;15.32;;;10.10;;
58659;SDS011;44429;45.110;20.622;2022-08-21T18:17:20;15.60;;;9.45;;
58659;SDS011;44429;45.110;20.622;2022-08-21T18:19:48;14.07;;;9.38;;
58659;SDS011;44429;45.110;20.622;2022-08-21T18:22:14;13.18;;;9.57;;
58659;SDS011;44429;45.110;20.622;2022-08-21T18:24:40;17.15;;;10.10;;
58659;SDS011;44429;45.110;20.622;2022-08-21T18:27:08;17.33;;;9.82;;
58659;SDS011;44429;45.110;20.622;2022-08-21T18:29:35;16.38;;;10.45;;
58659;SDS011;44429;45.110;20.622;2022-08-21T18:32:02;14.13;;;10.60;;
58659;SDS011;44429;45.110;20.622;2022-08-21T18:34:29;15.05;;;9.40;;
58659;SDS011;44429;45.110;20.622;2022-08-21T18:36:58;14.40;;;9.25;;
58659;SDS011;44429;45.110;20.622;2022-08-21T18:39:24;16.15;;;10.18;;
58659;SDS011;44429;45.110;20.622;2022-08-21T18:41:51;14.60;;;10.52;;
58659;SDS011;44429;45.110;20.622;2022-08-21T18:44:18;14.77;;;9.82;;
58659;SDS011;44429;45.110;20.622;2022-08-21T18:47:03;14.93;;;8.90;;
58659;SDS011;44429;45.110;20.622;2022-08-21T18:49:29;13.75;;;9.05;;
58659;SDS011;44429;45.110;20.622;2022-08-21T18:51:55;14.60;;;8.73;;
58659;SDS011;44429;45.110;20.622;2022-08-21T18:54:22;13.68;;;9.75;;
58659;SDS011;44429;45.110;20.622;2022-08-21T18:56:48;13.10;;;9.15;;
58659;SDS011;44429;45.110;20.622;2022-08-21T18:59:14;13.43;;;8.93;;
58659;SDS011;44429;45.110;20.622;2022-08-21T19:01:40;15.10;;;9.98;;
58659;SDS011;44429;45.110;20.622;2022-08-21T19:04:07;16.48;;;8.95;;
58659;SDS011;44429;45.110;20.622;2022-08-21T19:06:34;13.15;;;8.90;;
58659;SDS011;44429;45.110;20.622;2022-08-21T19:09:07;13.63;;;7.65;;
58659;SDS011;44429;45.110;20.622;2022-08-21T19:11:34;12.35;;;8.35;;
58659;SDS011;44429;45.110;20.622;2022-08-21T19:14:04;13.20;;;8.00;;
58659;SDS011;44429;45.110;20.622;2022-08-21T19:16:31;13.82;;;8.00;;
58659;SDS011;44429;45.110;20.622;2022-08-21T19:18:57;12.90;;;7.82;;